sensor_id;sensor_type;location;lat;lon;timestamp;P1;durP1;ratioP1;P2;durP2;ratioP2
22571;SDS011;11452;53.368;14.658;2023-03-13T00:02:33;7.17;;;6.20;;
22571;SDS011;11452;53.368;14.658;2023-03-13T00:07:39;10.50;;;7.17;;
22571;SDS011;11452;53.368;14.658;2023-03-13T00:12:44;11.83;;;8.80;;
22571;SDS011;11452;53.368;14.658;2023-03-13T00:17:49;13.63;;;10.00;;
22571;SDS011;11452;53.368;14.658;2023-03-13T00:22:55;13.60;;;9.10;;
22571;SDS011;11452;53.368;14.658;2023-03-13T00:28:01;15.83;;;10.03;;
22571;SDS011;11452;53.368;14.658;2023-03-13T00:33:07;18.63;;;12.13;;
22571;SDS011;11452;53.368;14.658;2023-03-13T00:38:12;20.33;;;12.17;;
22571;SDS011;11452;53.368;14.658;2023-03-13T00:43:18;17.43;;;12.27;;
22571;SDS011;11452;53.368;14.658;2023-03-13T00:48:23;17.20;;;12.00;;
22571;SDS011;11452;53.368;14.658;2023-03-13T00:53:29;18.10;;;12.93;;
22571;SDS011;11452;53.368;14.658;2023-03-13T00:58:36;21.27;;;12.70;;
22571;SDS011;11452;53.368;14.658;2023-03-13T01:03:44;19.80;;;12.90;;
22571;SDS011;11452;53.368;14.658;2023-03-13T01:08:51;16.97;;;12.27;;
22571;SDS011;11452;53.368;14.658;2023-03-13T01:13:59;23.37;;;13.27;;
22571;SDS011;11452;53.368;14.658;2023-03-13T01:19:11;20.77;;;13.50;;
22571;SDS011;11452;53.368;14.658;2023-03-13T01:24:19;24.03;;;13.90;;
22571;SDS011;11452;53.368;14.658;2023-03-13T01:29:27;22.73;;;15.10;;
22571;SDS011;11452;53.368;14.658;2023-03-13T01:34:33;24.07;;;13.97;;
22571;SDS011;11452;53.368;14.658;2023-03-13T01:39:39;24.40;;;15.70;;
22571;SDS011;11452;53.368;14.658;2023-03-13T01:44:49;25.27;;;15.13;;
22571;SDS011;11452;53.368;14.658;2023-03-13T01:49:58;23.43;;;15.13;;
22571;SDS011;11452;53.368;14.658;2023-03-13T01:55:23;22.77;;;15.03;;
22571;SDS011;11452;53.368;14.658;2023-03-13T02:00:31;16.60;;;12.20;;
22571;SDS011;11452;53.368;14.658;2023-03-13T02:05:41;20.77;;;13.73;;
22571;SDS011;11452;53.368;14.658;2023-03-13T02:10:50;20.03;;;14.00;;
22571;SDS011;11452;53.368;14.658;2023-03-13T02:16:00;21.47;;;13.10;;
22571;SDS011;11452;53.368;14.658;2023-03-13T02:26:45;18.17;;;12.43;;
22571;SDS011;11452;53.368;14.658;2023-03-13T02:31:52;19.73;;;13.80;;
22571;SDS011;11452;53.368;14.658;2023-03-13T02:36:58;22.90;;;13.67;;
22571;SDS011;11452;53.368;14.658;2023-03-13T02:42:05;19.83;;;12.27;;
22571;SDS011;11452;53.368;14.658;2023-03-13T02:47:20;19.97;;;12.80;;
22571;SDS011;11452;53.368;14.658;2023-03-13T02:52:32;19.87;;;12.70;;
22571;SDS011;11452;53.368;14.658;2023-03-13T02:57:41;19.57;;;13.20;;
22571;SDS011;11452;53.368;14.658;2023-03-13T03:02:46;18.17;;;12.27;;
22571;SDS011;11452;53.368;14.658;2023-03-13T03:07:52;17.80;;;11.93;;
22571;SDS011;11452;53.368;14.658;2023-03-13T03:12:58;15.87;;;11.53;;
22571;SDS011;11452;53.368;14.658;2023-03-13T03:18:05;16.07;;;11.70;;
22571;SDS011;11452;53.368;14.658;2023-03-13T03:23:11;24.33;;;13.17;;
22571;SDS011;11452;53.368;14.658;2023-03-13T03:28:16;18.60;;;10.80;;
22571;SDS011;11452;53.368;14.658;2023-03-13T03:33:22;15.50;;;10.90;;
22571;SDS011;11452;53.368;14.658;2023-03-13T03:38:28;16.50;;;10.53;;
22571;SDS011;11452;53.368;14.658;2023-03-13T03:43:34;18.00;;;10.90;;
22571;SDS011;11452;53.368;14.658;2023-03-13T03:48:41;20.60;;;10.93;;
22571;SDS011;11452;53.368;14.658;2023-03-13T03:53:46;18.23;;;11.40;;
22571;SDS011;11452;53.368;14.658;2023-03-13T03:58:52;16.97;;;10.10;;
22571;SDS011;11452;53.368;14.658;2023-03-13T04:03:59;18.50;;;10.43;;
22571;SDS011;11452;53.368;14.658;2023-03-13T04:09:07;18.67;;;9.87;;
22571;SDS011;11452;53.368;14.658;2023-03-13T04:14:13;18.83;;;9.93;;
22571;SDS011;11452;53.368;14.658;2023-03-13T04:19:19;14.60;;;8.73;;
22571;SDS011;11452;53.368;14.658;2023-03-13T04:24:26;17.60;;;8.93;;
22571;SDS011;11452;53.368;14.658;2023-03-13T04:29:32;20.17;;;8.80;;
22571;SDS011;11452;53.368;14.658;2023-03-13T04:34:40;13.70;;;8.80;;
22571;SDS011;11452;53.368;14.658;2023-03-13T04:39:53;15.37;;;8.57;;
22571;SDS011;11452;53.368;14.658;2023-03-13T04:45:00;17.60;;;9.13;;
22571;SDS011;11452;53.368;14.658;2023-03-13T04:50:24;18.07;;;8.13;;
22571;SDS011;11452;53.368;14.658;2023-03-13T04:55:49;15.00;;;8.00;;
22571;SDS011;11452;53.368;14.658;2023-03-13T05:01:03;17.10;;;8.20;;
22571;SDS011;11452;53.368;14.658;2023-03-13T05:06:13;12.70;;;7.70;;
22571;SDS011;11452;53.368;14.658;2023-03-13T05:11:33;14.30;;;7.67;;
22571;SDS011;11452;53.368;14.658;2023-03-13T05:17:07;12.00;;;8.20;;
22571;SDS011;11452;53.368;14.658;2023-03-13T05:22:31;13.43;;;7.83;;
22571;SDS011;11452;53.368;14.658;2023-03-13T05:27:56;15.53;;;7.30;;
22571;SDS011;11452;53.368;14.658;2023-03-13T05:33:03;13.83;;;6.63;;
22571;SDS011;11452;53.368;14.658;2023-03-13T05:38:20;11.40;;;6.60;;
22571;SDS011;11452;53.368;14.658;2023-03-13T05:43:43;9.00;;;6.80;;
22571;SDS011;11452;53.368;14.658;2023-03-13T05:48:50;9.67;;;6.03;;
22571;SDS011;11452;53.368;14.658;2023-03-13T05:53:58;14.93;;;6.57;;
22571;SDS011;11452;53.368;14.658;2023-03-13T05:59:21;13.90;;;6.33;;
22571;SDS011;11452;53.368;14.658;2023-03-13T06:04:35;10.70;;;6.47;;
22571;SDS011;11452;53.368;14.658;2023-03-13T06:09:40;17.13;;;6.53;;
22571;SDS011;11452;53.368;14.658;2023-03-13T06:14:46;15.07;;;6.47;;
22571;SDS011;11452;53.368;14.658;2023-03-13T06:19:59;10.87;;;5.33;;
22571;SDS011;11452;53.368;14.658;2023-03-13T06:25:05;11.03;;;5.27;;
22571;SDS011;11452;53.368;14.658;2023-03-13T06:30:11;11.10;;;4.93;;
22571;SDS011;11452;53.368;14.658;2023-03-13T06:35:17;7.70;;;4.63;;
22571;SDS011;11452;53.368;14.658;2023-03-13T06:40:22;16.77;;;5.50;;
22571;SDS011;11452;53.368;14.658;2023-03-13T06:45:28;8.13;;;4.93;;
22571;SDS011;11452;53.368;14.658;2023-03-13T06:50:36;11.20;;;4.57;;
22571;SDS011;11452;53.368;14.658;2023-03-13T06:55:44;7.07;;;4.23;;
22571;SDS011;11452;53.368;14.658;2023-03-13T07:00:51;10.43;;;4.57;;
22571;SDS011;11452;53.368;14.658;2023-03-13T07:05:57;11.67;;;5.57;;
22571;SDS011;11452;53.368;14.658;2023-03-13T07:11:04;13.10;;;4.47;;
22571;SDS011;11452;53.368;14.658;2023-03-13T07:16:12;9.20;;;3.83;;
22571;SDS011;11452;53.368;14.658;2023-03-13T07:21:19;9.90;;;4.90;;
22571;SDS011;11452;53.368;14.658;2023-03-13T07:26:24;10.73;;;4.50;;
22571;SDS011;11452;53.368;14.658;2023-03-13T07:31:30;12.53;;;4.37;;
22571;SDS011;11452;53.368;14.658;2023-03-13T07:36:36;7.87;;;3.90;;
22571;SDS011;11452;53.368;14.658;2023-03-13T07:41:44;11.40;;;4.70;;
22571;SDS011;11452;53.368;14.658;2023-03-13T07:46:51;11.17;;;5.40;;
22571;SDS011;11452;53.368;14.658;2023-03-13T07:51:57;13.23;;;4.53;;
22571;SDS011;11452;53.368;14.658;2023-03-13T07:57:03;8.07;;;4.53;;
22571;SDS011;11452;53.368;14.658;2023-03-13T08:02:10;11.10;;;5.10;;
22571;SDS011;11452;53.368;14.658;2023-03-13T08:07:19;9.33;;;4.17;;
22571;SDS011;11452;53.368;14.658;2023-03-13T08:12:25;11.70;;;4.43;;
22571;SDS011;11452;53.368;14.658;2023-03-13T08:17:30;13.90;;;4.67;;
22571;SDS011;11452;53.368;14.658;2023-03-13T08:22:36;8.87;;;4.07;;
22571;SDS011;11452;53.368;14.658;2023-03-13T08:27:41;7.63;;;4.33;;
22571;SDS011;11452;53.368;14.658;2023-03-13T08:32:47;15.47;;;5.23;;
22571;SDS011;11452;53.368;14.658;2023-03-13T08:37:53;6.43;;;3.90;;
22571;SDS011;11452;53.368;14.658;2023-03-13T08:42:58;10.67;;;4.40;;
22571;SDS011;11452;53.368;14.658;2023-03-13T08:48:04;13.30;;;5.03;;
22571;SDS011;11452;53.368;14.658;2023-03-13T08:53:10;9.67;;;4.60;;
22571;SDS011;11452;53.368;14.658;2023-03-13T08:58:16;10.07;;;5.00;;
22571;SDS011;11452;53.368;14.658;2023-03-13T09:03:21;12.80;;;4.87;;
22571;SDS011;11452;53.368;14.658;2023-03-13T09:08:27;9.33;;;3.57;;
22571;SDS011;11452;53.368;14.658;2023-03-13T09:13:35;6.57;;;3.83;;
22571;SDS011;11452;53.368;14.658;2023-03-13T09:18:42;9.33;;;3.87;;
22571;SDS011;11452;53.368;14.658;2023-03-13T09:23:49;9.57;;;3.40;;
22571;SDS011;11452;53.368;14.658;2023-03-13T09:28:55;9.43;;;4.03;;
22571;SDS011;11452;53.368;14.658;2023-03-13T09:34:01;13.30;;;3.90;;
22571;SDS011;11452;53.368;14.658;2023-03-13T09:39:07;7.20;;;3.57;;
22571;SDS011;11452;53.368;14.658;2023-03-13T09:44:19;6.83;;;3.20;;
22571;SDS011;11452;53.368;14.658;2023-03-13T09:49:33;8.47;;;3.10;;
22571;SDS011;11452;53.368;14.658;2023-03-13T09:54:58;10.23;;;3.37;;
22571;SDS011;11452;53.368;14.658;2023-03-13T10:00:13;5.47;;;2.33;;
22571;SDS011;11452;53.368;14.658;2023-03-13T10:05:27;6.67;;;2.83;;
22571;SDS011;11452;53.368;14.658;2023-03-13T10:10:39;7.67;;;3.10;;
22571;SDS011;11452;53.368;14.658;2023-03-13T10:15:46;8.30;;;3.20;;
22571;SDS011;11452;53.368;14.658;2023-03-13T10:21:00;4.23;;;2.47;;
22571;SDS011;11452;53.368;14.658;2023-03-13T10:26:20;7.03;;;2.77;;
22571;SDS011;11452;53.368;14.658;2023-03-13T10:31:31;3.30;;;2.43;;
22571;SDS011;11452;53.368;14.658;2023-03-13T10:36:41;6.97;;;3.60;;
22571;SDS011;11452;53.368;14.658;2023-03-13T10:41:48;5.23;;;2.73;;
22571;SDS011;11452;53.368;14.658;2023-03-13T10:46:58;5.20;;;2.43;;
22571;SDS011;11452;53.368;14.658;2023-03-13T10:52:05;4.83;;;2.70;;
22571;SDS011;11452;53.368;14.658;2023-03-13T11:02:27;4.33;;;2.73;;
22571;SDS011;11452;53.368;14.658;2023-03-13T11:07:38;5.27;;;3.27;;
22571;SDS011;11452;53.368;14.658;2023-03-13T11:12:45;4.50;;;3.07;;
22571;SDS011;11452;53.368;14.658;2023-03-13T11:17:58;4.23;;;2.60;;
22571;SDS011;11452;53.368;14.658;2023-03-13T11:23:14;5.90;;;4.20;;
22571;SDS011;11452;53.368;14.658;2023-03-13T11:28:34;5.30;;;4.00;;
22571;SDS011;11452;53.368;14.658;2023-03-13T11:45:05;9.17;;;4.10;;
22571;SDS011;11452;53.368;14.658;2023-03-13T11:50:50;5.13;;;4.63;;
22571;SDS011;11452;53.368;14.658;2023-03-13T11:55:34;9.53;;;5.77;;
22571;SDS011;11452;53.368;14.658;2023-03-13T12:00:51;6.13;;;5.17;;
22571;SDS011;11452;53.368;14.658;2023-03-13T12:06:00;8.53;;;4.80;;
22571;SDS011;11452;53.368;14.658;2023-03-13T12:11:27;5.27;;;2.47;;
22571;SDS011;11452;53.368;14.658;2023-03-13T12:21:50;6.30;;;3.43;;
22571;SDS011;11452;53.368;14.658;2023-03-13T12:26:59;4.07;;;2.97;;
22571;SDS011;11452;53.368;14.658;2023-03-13T12:37:48;4.93;;;3.87;;
22571;SDS011;11452;53.368;14.658;2023-03-13T12:59:18;3.93;;;3.07;;
22571;SDS011;11452;53.368;14.658;2023-03-13T13:04:26;3.77;;;3.10;;
22571;SDS011;11452;53.368;14.658;2023-03-13T13:09:34;6.07;;;2.73;;
22571;SDS011;11452;53.368;14.658;2023-03-13T13:19:57;3.87;;;2.27;;
22571;SDS011;11452;53.368;14.658;2023-03-13T13:30:33;2.63;;;1.90;;
22571;SDS011;11452;53.368;14.658;2023-03-13T13:35:39;2.47;;;1.93;;
22571;SDS011;11452;53.368;14.658;2023-03-13T13:41:01;2.80;;;1.73;;
22571;SDS011;11452;53.368;14.658;2023-03-13T13:46:27;1.67;;;1.40;;
22571;SDS011;11452;53.368;14.658;2023-03-13T13:51:40;2.83;;;1.60;;
22571;SDS011;11452;53.368;14.658;2023-03-13T13:56:51;2.03;;;1.30;;
22571;SDS011;11452;53.368;14.658;2023-03-13T14:02:23;1.40;;;1.30;;
22571;SDS011;11452;53.368;14.658;2023-03-13T14:12:45;3.00;;;1.23;;
22571;SDS011;11452;53.368;14.658;2023-03-13T14:18:09;1.33;;;1.23;;
22571;SDS011;11452;53.368;14.658;2023-03-13T14:23:28;1.70;;;1.47;;
22571;SDS011;11452;53.368;14.658;2023-03-13T14:28:38;1.77;;;1.20;;
22571;SDS011;11452;53.368;14.658;2023-03-13T14:33:45;3.00;;;1.30;;
22571;SDS011;11452;53.368;14.658;2023-03-13T14:38:55;2.73;;;1.00;;
22571;SDS011;11452;53.368;14.658;2023-03-13T14:44:06;1.87;;;1.03;;
22571;SDS011;11452;53.368;14.658;2023-03-13T14:49:24;1.50;;;1.13;;
22571;SDS011;11452;53.368;14.658;2023-03-13T14:54:36;1.30;;;1.10;;
22571;SDS011;11452;53.368;14.658;2023-03-13T14:59:44;1.77;;;1.00;;
22571;SDS011;11452;53.368;14.658;2023-03-13T15:04:57;1.13;;;0.90;;
22571;SDS011;11452;53.368;14.658;2023-03-13T15:15:31;1.33;;;0.90;;
22571;SDS011;11452;53.368;14.658;2023-03-13T15:20:36;1.23;;;1.13;;
22571;SDS011;11452;53.368;14.658;2023-03-13T15:25:42;1.37;;;1.07;;
22571;SDS011;11452;53.368;14.658;2023-03-13T15:30:48;1.43;;;1.17;;
22571;SDS011;11452;53.368;14.658;2023-03-13T15:35:55;1.37;;;1.27;;
22571;SDS011;11452;53.368;14.658;2023-03-13T15:41:01;1.13;;;1.00;;
22571;SDS011;11452;53.368;14.658;2023-03-13T15:46:13;1.50;;;0.90;;
22571;SDS011;11452;53.368;14.658;2023-03-13T15:51:19;1.20;;;0.80;;
22571;SDS011;11452;53.368;14.658;2023-03-13T15:56:25;1.07;;;0.87;;
22571;SDS011;11452;53.368;14.658;2023-03-13T16:01:34;1.60;;;1.00;;
22571;SDS011;11452;53.368;14.658;2023-03-13T16:06:41;0.90;;;0.90;;
22571;SDS011;11452;53.368;14.658;2023-03-13T16:11:46;1.10;;;1.00;;
22571;SDS011;11452;53.368;14.658;2023-03-13T16:16:53;1.10;;;1.00;;
22571;SDS011;11452;53.368;14.658;2023-03-13T16:21:58;2.70;;;1.20;;
22571;SDS011;11452;53.368;14.658;2023-03-13T16:27:14;1.10;;;1.03;;
22571;SDS011;11452;53.368;14.658;2023-03-13T16:32:18;2.13;;;1.40;;
22571;SDS011;11452;53.368;14.658;2023-03-13T16:37:25;2.40;;;1.30;;
22571;SDS011;11452;53.368;14.658;2023-03-13T16:42:31;1.87;;;1.40;;
22571;SDS011;11452;53.368;14.658;2023-03-13T16:47:36;1.97;;;1.50;;
22571;SDS011;11452;53.368;14.658;2023-03-13T16:52:42;3.27;;;1.60;;
22571;SDS011;11452;53.368;14.658;2023-03-13T16:57:48;1.60;;;1.50;;
22571;SDS011;11452;53.368;14.658;2023-03-13T17:02:55;2.10;;;1.83;;
22571;SDS011;11452;53.368;14.658;2023-03-13T17:08:01;2.40;;;1.83;;
22571;SDS011;11452;53.368;14.658;2023-03-13T17:13:06;2.90;;;1.60;;
22571;SDS011;11452;53.368;14.658;2023-03-13T17:18:12;1.67;;;1.30;;
22571;SDS011;11452;53.368;14.658;2023-03-13T17:23:18;2.20;;;1.50;;
22571;SDS011;11452;53.368;14.658;2023-03-13T17:28:23;2.80;;;1.50;;
22571;SDS011;11452;53.368;14.658;2023-03-13T17:33:29;2.00;;;1.77;;
22571;SDS011;11452;53.368;14.658;2023-03-13T17:38:34;1.37;;;1.20;;
22571;SDS011;11452;53.368;14.658;2023-03-13T17:43:40;1.43;;;1.03;;
22571;SDS011;11452;53.368;14.658;2023-03-13T17:48:47;1.63;;;1.53;;
22571;SDS011;11452;53.368;14.658;2023-03-13T17:53:55;1.63;;;1.17;;
22571;SDS011;11452;53.368;14.658;2023-03-13T17:59:04;2.13;;;1.70;;
22571;SDS011;11452;53.368;14.658;2023-03-13T18:04:12;2.40;;;1.50;;
22571;SDS011;11452;53.368;14.658;2023-03-13T18:09:19;3.43;;;2.30;;
22571;SDS011;11452;53.368;14.658;2023-03-13T18:14:25;2.33;;;1.63;;
22571;SDS011;11452;53.368;14.658;2023-03-13T18:19:31;1.53;;;1.40;;
22571;SDS011;11452;53.368;14.658;2023-03-13T18:24:36;2.87;;;1.63;;
22571;SDS011;11452;53.368;14.658;2023-03-13T18:29:42;2.53;;;1.60;;
22571;SDS011;11452;53.368;14.658;2023-03-13T18:34:48;1.97;;;1.67;;
22571;SDS011;11452;53.368;14.658;2023-03-13T18:39:54;2.70;;;1.60;;
22571;SDS011;11452;53.368;14.658;2023-03-13T18:45:03;2.57;;;1.80;;
22571;SDS011;11452;53.368;14.658;2023-03-13T18:55:33;1.40;;;1.30;;
22571;SDS011;11452;53.368;14.658;2023-03-13T19:00:39;1.73;;;1.63;;
22571;SDS011;11452;53.368;14.658;2023-03-13T19:05:44;2.27;;;1.43;;
22571;SDS011;11452;53.368;14.658;2023-03-13T19:10:50;1.77;;;1.50;;
22571;SDS011;11452;53.368;14.658;2023-03-13T19:15:55;2.30;;;1.50;;
22571;SDS011;11452;53.368;14.658;2023-03-13T19:21:01;1.60;;;1.37;;
22571;SDS011;11452;53.368;14.658;2023-03-13T19:26:10;2.40;;;2.20;;
22571;SDS011;11452;53.368;14.658;2023-03-13T19:31:15;1.80;;;1.70;;
22571;SDS011;11452;53.368;14.658;2023-03-13T19:36:22;2.77;;;1.57;;
22571;SDS011;11452;53.368;14.658;2023-03-13T19:41:28;1.60;;;1.50;;
22571;SDS011;11452;53.368;14.658;2023-03-13T19:46:33;2.07;;;1.87;;
22571;SDS011;11452;53.368;14.658;2023-03-13T19:51:41;2.20;;;1.80;;
22571;SDS011;11452;53.368;14.658;2023-03-13T19:56:48;2.57;;;1.63;;
22571;SDS011;11452;53.368;14.658;2023-03-13T20:01:56;4.00;;;1.87;;
22571;SDS011;11452;53.368;14.658;2023-03-13T20:07:03;2.20;;;2.00;;
22571;SDS011;11452;53.368;14.658;2023-03-13T20:12:08;1.77;;;1.60;;
22571;SDS011;11452;53.368;14.658;2023-03-13T20:17:14;1.80;;;1.53;;
22571;SDS011;11452;53.368;14.658;2023-03-13T20:22:19;2.40;;;2.20;;
22571;SDS011;11452;53.368;14.658;2023-03-13T20:27:25;1.83;;;1.73;;
22571;SDS011;11452;53.368;14.658;2023-03-13T20:32:31;2.50;;;2.23;;
22571;SDS011;11452;53.368;14.658;2023-03-13T20:37:36;3.03;;;2.00;;
22571;SDS011;11452;53.368;14.658;2023-03-13T20:42:42;3.40;;;3.10;;
22571;SDS011;11452;53.368;14.658;2023-03-13T20:47:47;3.30;;;2.40;;
22571;SDS011;11452;53.368;14.658;2023-03-13T20:52:53;3.53;;;2.73;;
22571;SDS011;11452;53.368;14.658;2023-03-13T20:57:59;3.03;;;2.67;;
22571;SDS011;11452;53.368;14.658;2023-03-13T21:03:04;3.40;;;2.33;;
22571;SDS011;11452;53.368;14.658;2023-03-13T21:08:11;2.07;;;1.93;;
22571;SDS011;11452;53.368;14.658;2023-03-13T21:13:16;3.77;;;1.80;;
22571;SDS011;11452;53.368;14.658;2023-03-13T21:18:22;1.80;;;1.70;;
22571;SDS011;11452;53.368;14.658;2023-03-13T21:23:27;1.33;;;1.20;;
22571;SDS011;11452;53.368;14.658;2023-03-13T21:28:34;2.47;;;1.97;;
22571;SDS011;11452;53.368;14.658;2023-03-13T21:33:39;2.53;;;1.60;;
22571;SDS011;11452;53.368;14.658;2023-03-13T21:38:46;1.93;;;1.77;;
22571;SDS011;11452;53.368;14.658;2023-03-13T21:43:53;2.63;;;2.37;;
22571;SDS011;11452;53.368;14.658;2023-03-13T21:48:59;2.00;;;1.87;;
22571;SDS011;11452;53.368;14.658;2023-03-13T21:54:04;2.23;;;2.00;;
22571;SDS011;11452;53.368;14.658;2023-03-13T21:59:10;2.67;;;2.17;;
22571;SDS011;11452;53.368;14.658;2023-03-13T22:04:16;2.73;;;1.90;;
22571;SDS011;11452;53.368;14.658;2023-03-13T22:09:21;2.90;;;2.00;;
22571;SDS011;11452;53.368;14.658;2023-03-13T22:14:27;2.53;;;2.00;;
22571;SDS011;11452;53.368;14.658;2023-03-13T22:19:32;2.07;;;1.70;;
22571;SDS011;11452;53.368;14.658;2023-03-13T22:24:38;2.50;;;2.30;;
22571;SDS011;11452;53.368;14.658;2023-03-13T22:29:43;4.23;;;3.07;;
22571;SDS011;11452;53.368;14.658;2023-03-13T22:34:50;3.33;;;3.10;;
22571;SDS011;11452;53.368;14.658;2023-03-13T22:39:56;3.10;;;2.73;;
22571;SDS011;11452;53.368;14.658;2023-03-13T22:45:01;3.47;;;3.20;;
22571;SDS011;11452;53.368;14.658;2023-03-13T22:50:08;3.67;;;3.17;;
22571;SDS011;11452;53.368;14.658;2023-03-13T22:55:15;2.60;;;2.40;;
22571;SDS011;11452;53.368;14.658;2023-03-13T23:00:20;3.30;;;2.47;;
22571;SDS011;11452;53.368;14.658;2023-03-13T23:05:27;3.50;;;2.50;;
22571;SDS011;11452;53.368;14.658;2023-03-13T23:10:34;3.90;;;2.27;;
22571;SDS011;11452;53.368;14.658;2023-03-13T23:15:40;3.50;;;2.53;;
22571;SDS011;11452;53.368;14.658;2023-03-13T23:20:48;3.53;;;1.97;;
22571;SDS011;11452;53.368;14.658;2023-03-13T23:25:53;2.40;;;2.20;;
22571;SDS011;11452;53.368;14.658;2023-03-13T23:30:58;2.60;;;2.20;;
22571;SDS011;11452;53.368;14.658;2023-03-13T23:36:09;2.30;;;2.10;;
22571;SDS011;11452;53.368;14.658;2023-03-13T23:41:17;3.63;;;2.20;;
22571;SDS011;11452;53.368;14.658;2023-03-13T23:46:24;1.60;;;1.50;;
22571;SDS011;11452;53.368;14.658;2023-03-13T23:51:30;2.60;;;2.40;;
22571;SDS011;11452;53.368;14.658;2023-03-13T23:56:35;4.13;;;2.20;;
